Negril, Jamaica
Current Conditions -  °F | °C
As of 4:00 AM on Thursday 27 Nov 2014 (Local Time) from MKJS Reporting Station
Few Clouds Few Clouds  
Wind Chill: 77°   Ceiling: Unl
Heat Index: 78°   Visibility: 6mi
Dew Point: 77°   Wind: 1mph
Humidity: 100%   Direction: NA
Pressure: 29.91"   Gusts: NA
Location:  18.27°N, 78.35°W
Report Text: MKJS 270900Z VRB01KT 9999 FEW020 FEW022CB 25/25 Q1013
Loading
Personal Weather Stations






























Interactive Weather Map New forecast layout! Learn more

10-Day Weather Forecast

Advertisements
Track Severe Weather on mobile